Decoded Metar for LYNI (NIS in SERBIA) (IATA:INI) | Meteo·Mobile Aviation Weather
aviador You're here:

LYNI Decoded Metar

NIS in SERBIA
Report Time2018-11-16 17:30:00
UTC Time2018-11-16 18:06:04
Flight Rules vfr VFR
Wind010° at 05 kt
W.Decomp.*RWY 29: 1.1 kt HW 4.9 kt RCW
W.Rank010° ranks 36
Current wind is above 010° avg. (3.6)
Visibility9999 m
Phenomena:N/A
Clouds:N/A
Expected CloudBase > 2,000 ft AGL from Temp-Dew spread
CeilingNone
Temp04°C (ISA -10)
Dew Point-1°C (70% RH)
AAT0.1°C
QNH1028 hPa
Density Alt-935 ft
Elevation663 ft
Report Wrong Elevation
Raw Report
LYNI 161730Z 01005KT 340V050 CAVOK 04/M01 Q1028 NOSIG=

Extra information for LYNI:More info

Metar Taf Metar & Taf Last 4 Metars F.Rules Stats Wind Profile Meteogram Temp Stats Airport Information Weather charts Add Link Nearby VenuesMetar ALERT Operation Metar Decoded Social comments